Time;durP1;ratioP1;P1;durP2;ratioP2;P2;SDS_P1;SDS_P2;PMS_P1;PMS_P2;Temp;Humidity;BMP_temperature;BMP_pressure;BME280_temperature;BME280_humidity;BME280_pressure;Samples;Min_cycle;Max_cycle;Signal;HPM_P1;HPM_P2
2022/07/18 00:01:08;;;;;;;7.38;5.32;;;18.80;76.40;;;;;;5033603;28;20144;-43
2022/07/18 00:03:34;;;;;;;10.05;6.28;;;18.80;76.40;;;;;;5034032;28;20065;-42
2022/07/18 00:06:01;;;;;;;8.13;5.22;;;18.70;76.50;;;;;;5032568;28;20140;-43
2022/07/18 00:08:28;;;;;;;10.95;5.47;;;18.70;76.60;;;;;;5032953;28;20124;-43
2022/07/18 00:10:55;;;;;;;8.77;5.45;;;18.70;76.80;;;;;;5033669;28;20092;-43
2022/07/18 00:13:21;;;;;;;7.63;5.32;;;18.60;76.70;;;;;;5032194;28;20490;-43
2022/07/18 00:15:48;;;;;;;9.75;5.25;;;18.60;77.20;;;;;;5033093;28;20049;-43
2022/07/18 00:18:16;;;;;;;7.80;5.53;;;18.60;77.40;;;;;;5034051;28;20398;-43
2022/07/18 00:20:43;;;;;;;7.90;5.60;;;18.50;77.20;;;;;;5029192;28;20077;-42
2022/07/18 00:23:10;;;;;;;9.00;5.85;;;18.50;77.40;;;;;;5065319;28;20057;-42
2022/07/18 00:25:37;;;;;;;8.93;5.82;;;18.50;77.50;;;;;;5031313;28;20073;-43
2022/07/18 00:28:03;;;;;;;9.68;6.32;;;18.40;77.40;;;;;;5031997;28;20128;-43
2022/07/18 00:30:30;;;;;;;9.68;6.43;;;18.40;77.70;;;;;;5032813;28;20084;-43
2022/07/18 00:32:57;;;;;;;9.95;5.70;;;18.40;77.70;;;;;;5030028;28;20057;-42
2022/07/18 00:35:25;;;;;;;8.43;6.35;;;18.30;77.60;;;;;;5033651;28;20080;-43
2022/07/18 00:37:52;;;;;;;10.57;6.65;;;18.30;77.90;;;;;;5033832;28;20088;-43
2022/07/18 00:40:19;;;;;;;11.40;6.75;;;18.30;78.00;;;;;;5033531;28;20043;-43
2022/07/18 00:42:46;;;;;;;9.13;7.05;;;18.30;78.50;;;;;;5032806;28;20140;-42
2022/07/18 00:45:12;;;;;;;11.88;6.72;;;18.20;78.40;;;;;;5032599;28;20413;-44
2022/07/18 00:47:40;;;;;;;10.55;5.97;;;18.20;78.80;;;;;;5031892;28;20489;-43
2022/07/18 00:50:08;;;;;;;10.00;6.35;;;18.20;78.80;;;;;;5032196;28;20091;-43
2022/07/18 00:52:36;;;;;;;10.52;6.35;;;18.20;78.60;;;;;;5031742;28;20464;-43
2022/07/18 00:55:03;;;;;;;10.20;7.28;;;18.20;78.30;;;;;;5028818;28;20061;-43
2022/07/18 00:57:30;;;;;;;10.45;7.30;;;18.10;78.70;;;;;;5032642;28;20152;-43
2022/07/18 01:02:41;;;;;;;9.45;6.57;;;18.10;78.80;;;;;;5031959;28;20049;-42
2022/07/18 01:05:09;;;;;;;14.45;7.95;;;18.10;78.50;;;;;;5030376;28;20132;-43
2022/07/18 01:07:37;;;;;;;10.25;6.80;;;18.00;78.90;;;;;;5031996;28;20049;-43
2022/07/18 01:10:04;;;;;;;8.88;6.18;;;18.00;78.80;;;;;;5032660;28;20041;-43
2022/07/18 01:12:31;;;;;;;9.07;5.60;;;18.00;78.90;;;;;;5028810;28;20140;-43
2022/07/18 01:14:58;;;;;;;9.05;6.32;;;17.90;78.80;;;;;;5030669;28;20469;-43
2022/07/18 01:17:25;;;;;;;10.43;6.32;;;17.90;78.80;;;;;;5032600;28;20073;-44
2022/07/18 01:19:52;;;;;;;10.93;6.55;;;17.80;78.90;;;;;;5032534;28;20060;-43
2022/07/18 01:22:20;;;;;;;9.57;6.30;;;17.80;79.60;;;;;;5030304;28;20451;-43
2022/07/18 01:24:47;;;;;;;10.05;6.53;;;17.80;79.30;;;;;;5030426;28;20087;-43
2022/07/18 01:27:15;;;;;;;10.45;7.57;;;17.80;79.70;;;;;;5031952;28;20140;-43
2022/07/18 01:29:41;;;;;;;9.18;6.15;;;17.80;80.00;;;;;;5023858;28;20092;-43
2022/07/18 01:32:08;;;;;;;9.32;5.97;;;17.70;79.70;;;;;;5030247;28;20042;-43
2022/07/18 01:34:35;;;;;;;11.25;6.70;;;17.70;79.40;;;;;;5032095;28;20081;-43
2022/07/18 01:37:02;;;;;;;8.88;5.95;;;17.70;79.90;;;;;;5029913;28;20153;-43
2022/07/18 01:39:30;;;;;;;10.93;7.10;;;17.60;79.90;;;;;;5030286;28;20128;-43
2022/07/18 01:41:57;;;;;;;8.68;6.57;;;17.60;80.20;;;;;;5029350;28;20145;-42
2022/07/18 01:44:24;;;;;;;8.73;6.15;;;17.60;80.00;;;;;;5030483;28;20064;-43
2022/07/18 01:46:51;;;;;;;9.38;6.60;;;17.50;80.40;;;;;;5029855;28;20053;-43
2022/07/18 01:49:17;;;;;;;8.18;6.13;;;17.50;80.20;;;;;;5028372;28;20383;-44
2022/07/18 01:51:46;;;;;;;8.02;6.38;;;17.50;80.40;;;;;;5029997;28;20046;-41
2022/07/18 01:54:12;;;;;;;10.95;6.07;;;17.50;80.60;;;;;;5029826;28;20049;-43
2022/07/18 01:56:41;;;;;;;8.63;6.07;;;17.50;80.40;;;;;;5030631;28;20137;-43
2022/07/18 01:59:07;;;;;;;9.60;5.82;;;17.40;80.70;;;;;;5030024;28;20076;-42
2022/07/18 02:01:34;;;;;;;11.00;6.90;;;17.40;80.90;;;;;;5030066;28;20045;-42
2022/07/18 02:04:01;;;;;;;10.57;6.10;;;17.40;80.90;;;;;;5030008;28;20124;-43
2022/07/18 02:06:28;;;;;;;10.02;6.30;;;17.40;81.30;;;;;;5029485;28;20132;-43
2022/07/18 02:08:54;;;;;;;10.88;6.75;;;17.30;81.10;;;;;;5028122;28;20469;-43
2022/07/18 02:11:21;;;;;;;9.20;6.15;;;17.30;81.30;;;;;;5030207;28;20144;-43
2022/07/18 02:13:49;;;;;;;7.80;5.70;;;17.20;81.60;;;;;;5030799;28;20141;-43
2022/07/18 02:16:16;;;;;;;9.40;6.82;;;17.20;81.60;;;;;;5030805;28;20048;-43
2022/07/18 02:18:43;;;;;;;10.95;6.63;;;17.20;83.20;;;;;;5029598;28;20057;-43
2022/07/18 02:21:09;;;;;;;11.82;7.10;;;17.10;82.30;;;;;;5031130;28;20405;-43
2022/07/18 02:23:36;;;;;;;9.82;6.20;;;17.10;83.00;;;;;;5029618;28;20141;-43
2022/07/18 02:26:03;;;;;;;8.25;5.43;;;17.10;82.50;;;;;;5032007;28;20085;-42
2022/07/18 02:28:30;;;;;;;10.60;7.13;;;17.00;82.60;;;;;;5030096;28;20138;-42
2022/07/18 02:30:58;;;;;;;8.25;6.10;;;17.00;82.70;;;;;;5031574;28;20508;-42
2022/07/18 02:33:25;;;;;;;9.52;7.68;;;17.00;82.90;;;;;;5028594;28;20050;-42
2022/07/18 02:35:51;;;;;;;9.30;7.25;;;17.00;83.60;;;;;;5030682;28;20140;-42
2022/07/18 02:38:18;;;;;;;10.82;7.00;;;16.90;83.60;;;;;;5029581;28;20042;-43
2022/07/18 02:40:45;;;;;;;10.77;7.47;;;16.90;83.10;;;;;;5031740;28;20132;-43
2022/07/18 02:43:12;;;;;;;12.63;7.85;;;16.90;83.40;;;;;;5030128;28;20133;-43
2022/07/18 02:45:38;;;;;;;9.60;6.70;;;16.80;83.80;;;;;;5028349;28;20056;-43
2022/07/18 02:48:06;;;;;;;11.48;7.43;;;16.80;83.60;;;;;;5031108;28;20099;-43
2022/07/18 02:50:33;;;;;;;13.48;8.65;;;16.80;84.20;;;;;;5030877;28;20481;-43
2022/07/18 02:53:00;;;;;;;12.73;8.45;;;16.80;84.10;;;;;;5030354;28;20132;-43
2022/07/18 02:55:27;;;;;;;17.55;9.40;;;16.80;84.30;;;;;;5033539;28;20132;-43
2022/07/18 02:57:53;;;;;;;13.30;8.07;;;16.70;84.90;;;;;;5033680;28;20143;-43
2022/07/18 03:00:20;;;;;;;10.35;7.45;;;16.70;84.70;;;;;;5033209;28;20140;-43
2022/07/18 03:02:47;;;;;;;10.13;7.82;;;16.70;85.50;;;;;;5033462;28;20136;-43
2022/07/18 03:05:15;;;;;;;14.55;8.68;;;16.60;85.20;;;;;;5032647;28;20053;-43
2022/07/18 03:07:42;;;;;;;12.15;8.45;;;16.60;85.40;;;;;;5033892;28;20156;-43
2022/07/18 03:10:09;;;;;;;11.57;8.20;;;16.60;85.50;;;;;;5033880;28;20513;-43
2022/07/18 03:12:36;;;;;;;12.98;9.05;;;16.60;85.40;;;;;;5034937;28;20050;-43
2022/07/18 03:15:03;;;;;;;11.73;7.68;;;16.60;85.20;;;;;;5034264;28;20469;-43
2022/07/18 03:17:30;;;;;;;13.77;7.88;;;16.60;85.70;;;;;;5033869;28;20437;-43
2022/07/18 03:19:57;;;;;;;14.23;9.02;;;16.50;85.60;;;;;;5034409;28;20052;-45
2022/07/18 03:22:25;;;;;;;12.10;7.93;;;16.50;85.90;;;;;;5033828;28;20081;-42
2022/07/18 03:24:52;;;;;;;14.23;8.27;;;16.50;86.00;;;;;;5034236;28;20124;-42
2022/07/18 03:27:18;;;;;;;14.40;9.50;;;16.50;86.00;;;;;;5031900;28;20128;-43
2022/07/18 03:29:45;;;;;;;16.08;9.13;;;16.40;86.60;;;;;;5030049;28;20140;-43
2022/07/18 03:32:12;;;;;;;13.38;8.90;;;16.50;87.60;;;;;;5033205;28;20421;-44
2022/07/18 03:34:39;;;;;;;11.77;8.00;;;16.40;87.00;;;;;;5033451;28;20405;-42
2022/07/18 03:37:06;;;;;;;13.43;9.27;;;16.40;87.40;;;;;;5033213;28;20521;-43
2022/07/18 03:39:34;;;;;;;14.43;8.68;;;16.40;87.90;;;;;;5032571;28;20049;-43
2022/07/18 03:42:00;;;;;;;13.43;8.63;;;16.40;87.70;;;;;;5033536;28;20063;-43
2022/07/18 03:44:27;;;;;;;13.02;7.85;;;16.40;87.50;;;;;;5032510;28;20136;-43
2022/07/18 03:46:54;;;;;;;13.07;9.30;;;16.40;87.10;;;;;;5031782;28;20143;-43
2022/07/18 03:49:21;;;;;;;13.75;9.18;;;16.40;87.60;;;;;;5031919;28;20107;-42
2022/07/18 03:51:47;;;;;;;17.02;10.05;;;16.30;88.00;;;;;;5032315;28;20200;-43
2022/07/18 03:54:14;;;;;;;14.40;8.52;;;16.30;88.70;;;;;;5028815;28;20469;-43
2022/07/18 03:56:42;;;;;;;20.50;9.40;;;16.30;89.10;;;;;;5021403;28;20151;-42
2022/07/18 03:59:09;;;;;;;13.10;8.55;;;16.30;89.40;;;;;;5028863;28;20064;-42
2022/07/18 04:01:36;;;;;;;15.68;9.52;;;16.30;89.60;;;;;;5031648;28;20095;-42
2022/07/18 04:04:02;;;;;;;14.73;9.20;;;16.30;90.00;;;;;;5031709;28;20136;-42
2022/07/18 04:06:29;;;;;;;16.35;9.93;;;16.30;90.10;;;;;;5031297;28;20545;-43
2022/07/18 04:08:56;;;;;;;14.68;8.65;;;16.30;90.30;;;;;;5032680;28;20061;-43
2022/07/18 04:11:23;;;;;;;11.35;8.43;;;16.30;90.40;;;;;;5031587;28;20058;-43
2022/07/18 04:13:52;;;;;;;14.80;8.32;;;16.30;90.20;;;;;;5031304;28;20053;-42
2022/07/18 04:16:18;;;;;;;15.40;8.32;;;16.30;90.00;;;;;;5032889;28;20077;-42
2022/07/18 04:18:45;;;;;;;11.35;7.93;;;16.30;89.80;;;;;;5030702;28;20365;-42
2022/07/18 04:21:12;;;;;;;10.73;7.25;;;16.30;89.60;;;;;;5030600;28;20127;-43
2022/07/18 04:23:39;;;;;;;12.13;8.02;;;16.30;89.80;;;;;;5032854;28;20387;-43
2022/07/18 04:26:06;;;;;;;13.02;7.90;;;16.40;89.90;;;;;;5033147;28;20736;-43
2022/07/18 04:28:33;;;;;;;14.23;8.70;;;16.40;89.90;;;;;;5026922;28;20056;-44
2022/07/18 04:31:01;;;;;;;13.25;8.68;;;16.40;90.30;;;;;;5030377;28;20057;-43
2022/07/18 04:33:27;;;;;;;10.90;7.40;;;16.30;90.40;;;;;;5032611;28;20042;-42
2022/07/18 04:35:54;;;;;;;10.23;7.47;;;16.30;90.30;;;;;;5033144;28;20049;-43
2022/07/18 04:38:21;;;;;;;16.65;9.20;;;16.30;90.10;;;;;;5031012;28;20107;-42
2022/07/18 04:40:48;;;;;;;17.67;9.65;;;16.30;90.30;;;;;;5034010;28;20107;-43
2022/07/18 04:43:14;;;;;;;12.40;8.18;;;16.40;90.70;;;;;;5032447;28;20053;-42
2022/07/18 04:45:41;;;;;;;11.77;8.25;;;16.40;90.70;;;;;;5032129;28;20549;-43
2022/07/18 04:48:09;;;;;;;13.15;8.60;;;16.40;90.60;;;;;;5030585;28;20128;-42
2022/07/18 04:50:36;;;;;;;15.88;9.60;;;16.50;90.90;;;;;;5030096;28;20056;-43
2022/07/18 04:53:03;;;;;;;15.25;8.60;;;16.50;91.00;;;;;;5029337;28;20053;-44
2022/07/18 04:55:30;;;;;;;13.95;8.30;;;16.50;91.00;;;;;;5030748;28;20053;-44
2022/07/18 04:57:56;;;;;;;15.50;8.85;;;16.60;90.90;;;;;;5032108;28;20152;-43
2022/07/18 05:00:24;;;;;;;17.52;7.88;;;16.60;91.00;;;;;;5031859;28;21276;-43
2022/07/18 05:02:52;;;;;;;14.15;7.57;;;16.60;90.70;;;;;;5031024;28;20509;-43
2022/07/18 05:05:20;;;;;;;13.07;8.27;;;16.60;90.60;;;;;;5031343;28;20050;-43
2022/07/18 05:07:47;;;;;;;13.85;8.40;;;16.60;90.70;;;;;;5031164;28;20077;-43
2022/07/18 05:10:15;;;;;;;12.63;8.20;;;16.70;90.80;;;;;;5030518;28;20077;-43
2022/07/18 05:12:43;;;;;;;14.23;8.50;;;16.70;90.70;;;;;;5030899;28;20054;-44
2022/07/18 05:15:11;;;;;;;13.77;8.13;;;16.70;90.90;;;;;;5030804;28;20128;-44
2022/07/18 05:17:38;;;;;;;18.13;8.85;;;16.80;90.70;;;;;;5028841;28;20537;-43
2022/07/18 05:20:05;;;;;;;14.90;8.55;;;16.80;90.90;;;;;;5029650;28;20144;-43
2022/07/18 05:22:34;;;;;;;17.42;8.07;;;16.80;91.00;;;;;;5030673;28;20056;-44
2022/07/18 05:25:01;;;;;;;13.27;7.85;;;16.90;90.90;;;;;;5029949;28;20049;-44
2022/07/18 05:27:28;;;;;;;21.58;8.30;;;16.90;91.00;;;;;;5031747;28;20049;-44
2022/07/18 05:29:54;;;;;;;17.95;8.30;;;16.90;91.00;;;;;;5029672;28;20085;-43
2022/07/18 05:32:21;;;;;;;12.30;7.95;;;16.90;91.20;;;;;;5028887;28;20145;-43
2022/07/18 05:34:48;;;;;;;17.35;8.65;;;17.00;91.30;;;;;;5029458;28;20497;-44
2022/07/18 05:37:15;;;;;;;13.73;8.07;;;17.00;91.30;;;;;;5029434;28;20568;-43
2022/07/18 05:39:43;;;;;;;18.70;8.45;;;17.00;91.30;;;;;;5030457;28;20497;-44
2022/07/18 05:42:10;;;;;;;14.30;7.35;;;17.10;91.20;;;;;;5028190;28;20075;-43
2022/07/18 05:44:37;;;;;;;13.77;7.78;;;17.20;91.20;;;;;;4987695;28;1051593;-42
2022/07/18 05:47:03;;;;;;;14.82;7.88;;;17.30;91.10;;;;;;5025837;28;20050;-42
2022/07/18 05:49:30;;;;;;;14.73;7.38;;;17.40;91.00;;;;;;5028698;28;20057;-44
2022/07/18 05:51:57;;;;;;;13.50;7.55;;;17.50;90.80;;;;;;5029558;28;20075;-43
2022/07/18 05:54:24;;;;;;;12.10;7.07;;;17.60;90.60;;;;;;5027888;28;20135;-42
2022/07/18 05:56:53;;;;;;;10.15;6.55;;;17.70;90.40;;;;;;5029916;28;20045;-43
2022/07/18 05:59:20;;;;;;;11.45;6.93;;;17.70;90.20;;;;;;5029200;28;20049;-43
2022/07/18 06:01:47;;;;;;;17.67;7.38;;;17.80;90.00;;;;;;5028684;28;20154;-42
2022/07/18 06:04:14;;;;;;;9.88;6.40;;;17.80;89.90;;;;;;5027064;28;20038;-42
2022/07/18 06:06:40;;;;;;;18.27;6.80;;;17.90;89.80;;;;;;5031624;28;20569;-44
2022/07/18 06:09:08;;;;;;;10.68;5.95;;;18.00;89.40;;;;;;5028986;28;20045;-44
2022/07/18 06:11:35;;;;;;;12.13;5.63;;;18.00;89.20;;;;;;5021994;28;20049;-43
2022/07/18 06:14:03;;;;;;;11.23;5.35;;;18.10;88.50;;;;;;5025524;28;20545;-43
2022/07/18 06:16:30;;;;;;;9.88;5.50;;;18.30;88.40;;;;;;5029875;28;20137;-43
2022/07/18 06:18:57;;;;;;;10.00;5.72;;;18.40;88.50;;;;;;5030231;28;20541;-43
2022/07/18 06:21:23;;;;;;;9.50;5.43;;;18.50;87.60;;;;;;5029864;28;20457;-43
2022/07/18 06:23:50;;;;;;;10.88;4.85;;;18.60;87.30;;;;;;5028649;28;20120;-44
2022/07/18 06:26:17;;;;;;;9.40;4.90;;;18.70;87.00;;;;;;5027711;28;20053;-43
2022/07/18 06:28:44;;;;;;;7.65;4.80;;;18.70;86.60;;;;;;5033273;28;20088;-43
2022/07/18 06:31:14;;;;;;;7.93;4.85;;;18.90;85.90;;;;;;5019016;28;20130;-43
2022/07/18 06:33:41;;;;;;;11.27;4.97;;;19.00;86.00;;;;;;5033089;28;20386;-43
2022/07/18 06:36:08;;;;;;;8.20;4.38;;;19.10;85.20;;;;;;5033835;28;20073;-43
2022/07/18 06:38:38;;;;;;;10.68;4.80;;;19.20;84.40;;;;;;5034258;28;20049;-43
2022/07/18 06:41:05;;;;;;;9.50;4.32;;;19.30;84.30;;;;;;5031410;28;20136;-43
2022/07/18 06:43:32;;;;;;;14.00;5.00;;;19.40;84.10;;;;;;5033842;28;20532;-42
2022/07/18 06:45:59;;;;;;;11.80;5.38;;;19.50;84.00;;;;;;5021364;28;20159;-43
2022/07/18 06:48:32;;;;;;;7.05;4.30;;;19.50;83.80;;;;;;5031199;28;20102;-44
2022/07/18 06:50:59;;;;;;;10.10;4.90;;;19.60;83.70;;;;;;5033957;28;20049;-43
2022/07/18 06:53:26;;;;;;;9.43;4.90;;;19.70;82.90;;;;;;5021678;28;20049;-43
2022/07/18 06:55:53;;;;;;;7.20;4.35;;;19.80;82.40;;;;;;5029507;28;20231;-42
2022/07/18 06:58:19;;;;;;;8.02;4.40;;;20.00;82.00;;;;;;5012047;28;20058;-42
2022/07/18 07:00:46;;;;;;;6.90;4.65;;;20.20;81.90;;;;;;5030112;28;20081;-43
2022/07/18 07:03:13;;;;;;;11.13;5.70;;;20.40;81.90;;;;;;5034417;28;20073;-43
2022/07/18 07:05:41;;;;;;;10.00;5.00;;;20.50;81.20;;;;;;5034829;28;20558;-42
2022/07/18 07:08:08;;;;;;;15.40;5.75;;;20.70;80.10;;;;;;5033539;28;20084;-42
2022/07/18 07:10:35;;;;;;;8.88;4.90;;;20.90;80.00;;;;;;5032470;28;20132;-42
2022/07/18 07:13:02;;;;;;;10.60;5.45;;;21.10;80.30;;;;;;5029288;28;20140;-42
2022/07/18 07:15:28;;;;;;;10.52;4.88;;;21.30;79.30;;;;;;5029140;28;20493;-43
2022/07/18 07:17:55;;;;;;;8.50;4.53;;;21.50;79.10;;;;;;5032629;28;20136;-43
2022/07/18 07:20:22;;;;;;;8.75;3.88;;;21.70;78.70;;;;;;5033162;28;20080;-42
2022/07/18 07:22:50;;;;;;;7.72;4.72;;;21.80;78.00;;;;;;5034053;28;20136;-43
2022/07/18 07:25:17;;;;;;;11.90;4.25;;;22.00;76.20;;;;;;5032481;28;20680;-43
2022/07/18 07:27:44;;;;;;;8.52;3.90;;;22.20;75.40;;;;;;5033501;28;20120;-43
2022/07/18 07:30:12;;;;;;;16.17;3.63;;;22.30;74.90;;;;;;5031785;28;20080;-43
2022/07/18 07:32:39;;;;;;;11.75;3.65;;;22.30;73.40;;;;;;5032154;28;20111;-43
2022/07/18 07:35:10;;;;;;;7.57;3.00;;;22.50;73.20;;;;;;5031649;28;20566;-43
2022/07/18 07:37:37;;;;;;;12.20;3.38;;;22.60;73.50;;;;;;5028802;28;20418;-42
2022/07/18 07:40:06;;;;;;;9.15;3.30;;;22.80;73.50;;;;;;5025818;28;20171;-43
2022/07/18 07:42:33;;;;;;;11.18;3.83;;;22.90;73.10;;;;;;5023520;28;20119;-43
2022/07/18 07:45:00;;;;;;;9.73;3.20;;;23.10;72.90;;;;;;5030540;28;20088;-42
2022/07/18 07:47:28;;;;;;;7.28;3.10;;;23.30;71.70;;;;;;5033024;28;20134;-42
2022/07/18 07:49:55;;;;;;;6.53;3.00;;;23.40;71.00;;;;;;5032122;28;20541;-43
2022/07/18 07:52:23;;;;;;;12.05;2.65;;;23.60;71.40;;;;;;5033707;28;20100;-42
2022/07/18 07:54:50;;;;;;;7.25;2.80;;;23.70;71.50;;;;;;5031629;28;20104;-43
2022/07/18 07:57:18;;;;;;;7.55;2.75;;;23.80;70.90;;;;;;5031454;28;20136;-43
2022/07/18 07:59:45;;;;;;;9.20;2.70;;;23.80;70.00;;;;;;5031007;28;20053;-42
2022/07/18 08:02:12;;;;;;;7.05;2.50;;;23.90;69.90;;;;;;5031828;28;20144;-43
2022/07/18 08:04:38;;;;;;;5.60;2.40;;;24.10;70.60;;;;;;5031162;28;20077;-43
2022/07/18 08:07:05;;;;;;;5.63;2.47;;;24.20;69.90;;;;;;5032912;28;20121;-43
2022/07/18 08:09:32;;;;;;;7.65;2.72;;;24.40;68.60;;;;;;5032428;28;20125;-42
2022/07/18 08:11:59;;;;;;;6.43;2.50;;;24.50;67.60;;;;;;5031406;28;20406;-44
2022/07/18 08:14:27;;;;;;;12.07;2.50;;;24.60;67.50;;;;;;5018480;28;20606;-44
2022/07/18 08:16:53;;;;;;;8.00;2.40;;;24.70;67.60;;;;;;5028788;28;20049;-43
2022/07/18 08:19:20;;;;;;;4.00;2.20;;;24.70;67.00;;;;;;5029245;28;20144;-43
2022/07/18 08:21:47;;;;;;;5.65;2.30;;;24.80;66.10;;;;;;5030691;28;20132;-43
2022/07/18 08:24:14;;;;;;;6.57;2.33;;;25.00;66.10;;;;;;5029855;28;20577;-44
2022/07/18 08:26:40;;;;;;;4.18;1.70;;;25.10;66.10;;;;;;5021111;28;20056;-44
2022/07/18 08:29:07;;;;;;;4.82;1.80;;;25.30;66.40;;;;;;5032226;28;20083;-43
2022/07/18 08:31:36;;;;;;;8.40;2.10;;;25.40;65.30;;;;;;5031134;28;20393;-42
2022/07/18 08:34:03;;;;;;;6.38;1.70;;;25.60;63.40;;;;;;5027737;28;20517;-42
2022/07/18 08:36:29;;;;;;;8.32;2.05;;;25.70;63.00;;;;;;5030514;28;20072;-43
2022/07/18 08:38:56;;;;;;;4.75;2.05;;;25.80;62.20;;;;;;5031155;28;20091;-43
2022/07/18 08:41:23;;;;;;;4.78;1.70;;;26.00;61.80;;;;;;5030810;28;20103;-44
2022/07/18 08:43:50;;;;;;;6.15;1.80;;;26.20;61.50;;;;;;5031956;28;20124;-43
2022/07/18 08:46:20;;;;;;;7.45;1.90;;;26.40;61.30;;;;;;5031711;28;20490;-43
2022/07/18 08:48:48;;;;;;;8.93;1.93;;;26.50;59.70;;;;;;5031256;28;20065;-42
2022/07/18 08:51:15;;;;;;;6.20;1.83;;;26.70;60.30;;;;;;5029805;28;20137;-43
2022/07/18 08:53:42;;;;;;;5.88;1.90;;;26.90;59.10;;;;;;5030320;28;20132;-43
2022/07/18 08:56:09;;;;;;;5.32;2.40;;;26.90;59.60;;;;;;5030077;28;20073;-43
2022/07/18 08:58:35;;;;;;;4.70;1.60;;;27.20;59.20;;;;;;5032008;28;20069;-44
2022/07/18 09:01:02;;;;;;;8.10;1.83;;;27.30;59.10;;;;;;5028257;28;20409;-43
2022/07/18 09:03:29;;;;;;;5.30;1.40;;;27.50;58.30;;;;;;5026048;28;20049;-43
2022/07/18 09:06:05;;;;;;;5.70;1.63;;;27.60;57.30;;;;;;5025816;28;20049;-44
2022/07/18 09:08:32;;;;;;;5.63;1.67;;;27.80;55.80;;;;;;5031005;28;20077;-42
2022/07/18 09:11:01;;;;;;;3.72;1.73;;;27.80;55.80;;;;;;5026860;28;20558;-43
2022/07/18 09:13:36;;;;;;;4.78;2.20;;;27.80;54.70;;;;;;5026577;28;22055;-43
2022/07/18 09:16:03;;;;;;;6.05;1.75;;;27.90;54.80;;;;;;5026559;28;20152;-44
2022/07/18 09:18:30;;;;;;;7.85;1.80;;;27.90;54.90;;;;;;5029063;28;20122;-43
2022/07/18 09:21:01;;;;;;;5.68;1.88;;;27.90;54.70;;;;;;5029922;28;20081;-43
2022/07/18 09:23:30;;;;;;;8.13;1.70;;;28.10;55.50;;;;;;5029978;28;20091;-42
2022/07/18 09:25:57;;;;;;;5.05;1.60;;;28.20;55.30;;;;;;5026211;28;20061;-42
2022/07/18 09:28:24;;;;;;;4.45;2.00;;;28.40;54.30;;;;;;5031464;28;20076;-44
2022/07/18 09:30:50;;;;;;;7.72;1.92;;;28.60;53.20;;;;;;5029381;28;20085;-44
2022/07/18 09:33:20;;;;;;;5.47;1.70;;;28.80;52.80;;;;;;5028254;28;20064;-44
2022/07/18 09:35:48;;;;;;;7.57;2.00;;;29.00;52.80;;;;;;5028603;28;20089;-44
2022/07/18 09:38:18;;;;;;;6.28;1.90;;;29.10;52.90;;;;;;5031591;28;20152;-43
2022/07/18 09:40:49;;;;;;;9.60;2.10;;;29.20;51.70;;;;;;5032258;28;20128;-43
2022/07/18 09:43:17;;;;;;;6.18;1.90;;;29.20;51.00;;;;;;5028483;28;20453;-44
2022/07/18 09:45:47;;;;;;;13.77;2.10;;;29.30;50.90;;;;;;5028546;28;20057;-43
2022/07/18 09:48:15;;;;;;;8.18;2.13;;;29.30;50.70;;;;;;5026774;28;20516;-43
2022/07/18 09:50:43;;;;;;;7.15;1.88;;;29.40;50.30;;;;;;5030268;28;20426;-43
2022/07/18 09:53:12;;;;;;;6.03;1.88;;;29.60;51.00;;;;;;5026663;28;20486;-43
2022/07/18 09:55:47;;;;;;;7.30;2.00;;;29.90;50.50;;;;;;5025262;28;20381;-43
2022/07/18 09:58:16;;;;;;;6.45;2.13;;;30.00;50.90;;;;;;5028359;28;20445;-42
2022/07/18 10:00:43;;;;;;;5.55;1.88;;;30.10;49.80;;;;;;5027736;28;20453;-43
2022/07/18 10:03:10;;;;;;;7.53;2.33;;;30.10;49.20;;;;;;5029588;28;20095;-43
2022/07/18 10:05:37;;;;;;;5.47;2.20;;;30.20;48.80;;;;;;5028789;28;20128;-43
2022/07/18 10:08:05;;;;;;;5.70;1.65;;;30.20;48.60;;;;;;5029992;28;20076;-43
2022/07/18 10:10:32;;;;;;;7.18;2.67;;;30.40;48.20;;;;;;5027711;28;20545;-43
2022/07/18 10:13:00;;;;;;;7.40;2.10;;;30.40;48.20;;;;;;5021476;28;20112;-43
2022/07/18 10:15:28;;;;;;;8.35;2.10;;;30.50;47.70;;;;;;5030223;28;20052;-44
2022/07/18 10:17:57;;;;;;;4.47;2.00;;;30.60;48.10;;;;;;5011939;28;20073;-44
2022/07/18 10:20:28;;;;;;;7.55;2.28;;;30.60;48.50;;;;;;5011372;28;20081;-44
2022/07/18 10:22:59;;;;;;;5.35;2.72;;;30.70;47.70;;;;;;5022738;28;20092;-44
2022/07/18 10:25:25;;;;;;;5.07;2.20;;;30.80;47.70;;;;;;5031787;28;20073;-44
2022/07/18 10:27:54;;;;;;;5.72;2.60;;;30.90;47.00;;;;;;5031318;28;20128;-42
2022/07/18 10:30:33;;;;;;;6.30;2.70;;;31.00;46.00;;;;;;5030483;28;20077;-44
2022/07/18 10:33:00;;;;;;;5.53;2.42;;;31.00;45.20;;;;;;5030011;28;20073;-42
2022/07/18 10:35:59;;;;;;;8.25;2.70;;;31.10;45.80;;;;;;5029395;28;20053;-43
2022/07/18 10:38:25;;;;;;;7.65;2.53;;;31.20;46.80;;;;;;5031297;28;20119;-43
2022/07/18 10:41:14;;;;;;;5.07;2.15;;;31.20;45.60;;;;;;5030941;28;20560;-44
2022/07/18 10:43:45;;;;;;;6.93;2.80;;;31.50;46.50;;;;;;5029617;28;20499;-44
2022/07/18 10:46:13;;;;;;;5.30;2.25;;;31.50;46.40;;;;;;5031323;28;20236;-43
2022/07/18 10:48:54;;;;;;;6.20;2.42;;;31.70;46.50;;;;;;5031375;28;20132;-44
2022/07/18 10:51:22;;;;;;;5.43;2.45;;;31.80;45.40;;;;;;5029345;28;20136;-44
2022/07/18 10:54:12;;;;;;;5.72;2.53;;;31.80;44.50;;;;;;5029627;28;20141;-45
2022/07/18 10:57:08;;;;;;;4.75;2.30;;;32.00;45.40;;;;;;5010655;28;20107;-44
2022/07/18 10:59:35;;;;;;;2.78;2.13;;;32.10;46.10;;;;;;5030012;28;20464;-44
2022/07/18 11:02:08;;;;;;;6.55;2.13;;;32.10;44.80;;;;;;5028447;28;20085;-42
2022/07/18 11:04:37;;;;;;;6.78;2.20;;;32.10;44.00;;;;;;5029400;28;20053;-43
2022/07/18 11:07:05;;;;;;;6.53;2.60;;;32.20;43.60;;;;;;5021851;28;20413;-44
2022/07/18 11:09:37;;;;;;;5.07;2.35;;;32.30;44.10;;;;;;5030419;28;20073;-44
2022/07/18 11:12:23;;;;;;;6.40;2.60;;;32.30;43.60;;;;;;5029813;28;20478;-44
2022/07/18 11:15:17;;;;;;;5.30;2.63;;;32.30;43.90;;;;;;5032601;28;20050;-44
2022/07/18 11:17:59;;;;;;;5.90;2.47;;;32.30;45.20;;;;;;4986624;28;20081;-44
2022/07/18 11:20:28;;;;;;;7.95;2.25;;;32.40;43.70;;;;;;5034338;28;20053;-43
2022/07/18 11:22:55;;;;;;;5.57;2.28;;;32.50;43.40;;;;;;5030783;28;20111;-43
2022/07/18 11:25:24;;;;;;;4.50;2.20;;;32.50;44.00;;;;;;5032528;28;20050;-44
2022/07/18 11:27:50;;;;;;;5.22;2.42;;;32.60;43.80;;;;;;5033911;28;20453;-43
2022/07/18 11:30:17;;;;;;;4.85;2.55;;;32.70;43.10;;;;;;5035299;28;20125;-44
2022/07/18 11:32:44;;;;;;;5.70;2.70;;;32.70;42.10;;;;;;5033256;28;20093;-43
2022/07/18 11:35:13;;;;;;;4.10;2.40;;;32.70;41.80;;;;;;5033754;28;20080;-43
2022/07/18 11:37:40;;;;;;;5.55;2.22;;;32.70;41.80;;;;;;5032839;28;20474;-44
2022/07/18 11:40:07;;;;;;;6.07;2.25;;;32.90;42.50;;;;;;5034244;28;20095;-44
2022/07/18 11:42:37;;;;;;;5.60;2.70;;;33.00;41.70;;;;;;5033205;28;20509;-43
2022/07/18 11:45:04;;;;;;;;;;;33.00;41.70;;;;;;5046616;28;20053;-44
2022/07/18 11:47:31;;;;;;;4.32;2.63;;;33.00;42.70;;;;;;5034747;28;19982;-44
2022/07/18 11:49:58;;;;;;;7.80;2.80;;;32.80;42.20;;;;;;5034433;28;20132;-44
2022/07/18 11:52:26;;;;;;;5.03;2.45;;;32.80;41.90;;;;;;5034833;28;20049;-44
2022/07/18 11:54:53;;;;;;;6.00;2.30;;;32.70;42.10;;;;;;5034705;28;20441;-43
2022/07/18 11:57:27;;;;;;;5.93;2.83;;;32.70;42.50;;;;;;5033029;28;20462;-44
2022/07/18 11:59:54;;;;;;;6.38;2.70;;;32.70;42.60;;;;;;5034141;28;20050;-44
2022/07/18 12:03:01;;;;;;;7.70;2.80;;;32.70;42.10;;;;;;5034914;28;20464;-44
2022/07/18 12:05:32;;;;;;;7.40;2.45;;;32.70;43.10;;;;;;5013462;28;20676;-44
2022/07/18 12:08:00;;;;;;;4.68;2.72;;;32.70;42.20;;;;;;5033870;28;20489;-44
2022/07/18 12:10:27;;;;;;;5.50;2.63;;;32.60;41.20;;;;;;5034781;28;20057;-44
2022/07/18 12:12:54;;;;;;;4.43;2.63;;;32.50;41.00;;;;;;5033748;28;20075;-44
2022/07/18 12:15:21;;;;;;;3.25;2.70;;;32.50;41.10;;;;;;5032846;28;20148;-44
2022/07/18 12:17:50;;;;;;;4.82;2.75;;;32.50;41.50;;;;;;5033799;28;20516;-44
2022/07/18 12:20:17;;;;;;;6.72;3.20;;;32.60;42.00;;;;;;5033081;28;20437;-45
2022/07/18 12:23:11;;;;;;;5.35;3.22;;;32.80;41.30;;;;;;5034589;28;20133;-45
2022/07/18 12:25:39;;;;;;;6.32;3.53;;;32.90;41.10;;;;;;5031730;28;20053;-44
2022/07/18 12:28:15;;;;;;;5.78;2.78;;;32.80;40.50;;;;;;5034254;28;20049;-43
2022/07/18 12:30:42;;;;;;;5.65;2.97;;;32.90;41.00;;;;;;5033944;28;20056;-44
2022/07/18 12:33:09;;;;;;;5.18;3.05;;;32.90;41.40;;;;;;5013527;28;20049;-43
2022/07/18 12:35:36;;;;;;;7.40;2.90;;;32.90;41.40;;;;;;5025284;28;20057;-43
2022/07/18 12:38:04;;;;;;;6.55;3.08;;;33.00;41.90;;;;;;5032403;28;20134;-43
2022/07/18 12:40:42;;;;;;;5.05;3.25;;;33.00;42.00;;;;;;5033404;28;20049;-43
2022/07/18 12:43:10;;;;;;;5.60;2.83;;;33.10;42.90;;;;;;5031206;28;20141;-43
2022/07/18 12:45:37;;;;;;;6.15;2.85;;;33.20;42.20;;;;;;5032647;28;20085;-43
2022/07/18 12:48:04;;;;;;;4.78;2.90;;;33.30;41.90;;;;;;5032294;28;20086;-44
2022/07/18 12:50:31;;;;;;;4.93;3.00;;;33.50;42.80;;;;;;5032188;28;20077;-43